메인 페이지
METAR-TAF:

METAR-TAF

공항 :

알마티 국제공항

알마티, 카자흐스탄

위도: 43-14N, 경도: 076-56E, 고도: 847m

현재 날씨관측

예보는 23분 전, 20:30시(UTC)에 발표되었습니다.
14kt
온도 24°C
습도 44%
기압 1013 hPa
시정 10km 이상
고도 5000ft 상공 구름 보통, 적란운.
고도 10000ft 상공 구름 많음

METAR: UAAA 202030Z 28007MPS 9999 SCT050CB BKN100 24/11 Q1013 R23L/CLRD65 TEMPO 30012G17MPS

시각: 02:53 (20:53 UTC)

예보

예보는 3 시간 53분 전, 17:00시(UTC)에 발표되었습니다.
예보 대상 시간: 20일 18시부터 21일 18시까지 (UTC)
북서12kt
시정: 5000m
고도 3000ft 상공 구름 많음, 적란운.
고도 10000ft 상공 구름 많음
약한소나기, 박무
일시적
20일 18시부터 20일 24시까지 (UTC)
29kt, 순간 최대 풍속 39kt
시정: 1200m
고도 1500ft 상공 구름 많음, 적란운.
고도 10000ft 상공 흐림
뇌우, 비, 날린먼지
일시적
21일 00시부터 21일 10시까지 (UTC)
여러 방향의 바람 35kt
시정: 2000m
고도 1000ft 상공 구름 많음, 적란운.
고도 10000ft 상공 흐림
뇌우, 비, 스콜
일시적
21일 10시부터 21일 18시까지 (UTC)
남서10kt
시정: 3000m

TAF: UAAA 201700Z 2018/2118 32006MPS 5000 -SHRA BR BKN030CB BKN100 TX26/2109Z TN13/2101Z TEMPO 2018/2024 26015G20MPS 1200 TSRA BLDU BKN015CB OVC100 TEMPO 2100/2110 VRB18MPS 2000 TSRA SQ BKN010CB OVC100 TEMPO 2110/2118 22005MPS 3000

4,000개 이상의 공항 관측 자료 및 예보 (METAR 및 TAF 보고).

지도상에서 검색 가능한 기상관측소가 노란 점과 빨간 점으로 표시되어 있습니다.

기상관측소 명을 보려면 표시 위로 마우스를 이동하세요.

날씨 관측과 예보를 보려면 클릭하세요.

지도 변경 : 확대하려면 엑스 표시가 있는 녹색 버튼, 축소하려면 빼기 표시가 있는 녹색 버튼, 다음 페이지의 지도를 보려면 녹색 화살표를 클릭하세요.


METAR-TAF: